sensor_id;sensor_type;location;lat;lon;timestamp;temperature;humidity
43695;DHT22;29300;43.560;1.294;2022-10-16T00:00:36;16.70;99.90
43695;DHT22;29300;43.560;1.294;2022-10-16T00:03:03;16.60;99.90
43695;DHT22;29300;43.560;1.294;2022-10-16T00:05:29;16.70;99.90
43695;DHT22;29300;43.560;1.294;2022-10-16T00:07:54;16.70;99.90
43695;DHT22;29300;43.560;1.294;2022-10-16T00:10:20;16.70;99.90
43695;DHT22;29300;43.560;1.294;2022-10-16T00:12:46;16.80;99.90
43695;DHT22;29300;43.560;1.294;2022-10-16T00:15:12;16.80;99.90
43695;DHT22;29300;43.560;1.294;2022-10-16T00:17:38;16.70;99.90
43695;DHT22;29300;43.560;1.294;2022-10-16T00:20:04;16.70;99.90
43695;DHT22;29300;43.560;1.294;2022-10-16T00:22:30;16.80;99.90
43695;DHT22;29300;43.560;1.294;2022-10-16T00:24:56;16.80;99.90
43695;DHT22;29300;43.560;1.294;2022-10-16T00:27:22;16.80;99.90
43695;DHT22;29300;43.560;1.294;2022-10-16T00:29:51;16.80;99.90
43695;DHT22;29300;43.560;1.294;2022-10-16T00:32:19;16.80;99.90
43695;DHT22;29300;43.560;1.294;2022-10-16T00:34:45;16.80;99.90
43695;DHT22;29300;43.560;1.294;2022-10-16T00:37:11;16.80;99.90
43695;DHT22;29300;43.560;1.294;2022-10-16T00:39:37;16.70;99.90
43695;DHT22;29300;43.560;1.294;2022-10-16T00:42:02;16.80;99.90
43695;DHT22;29300;43.560;1.294;2022-10-16T00:44:54;16.70;99.90
43695;DHT22;29300;43.560;1.294;2022-10-16T00:47:54;16.70;99.90
43695;DHT22;29300;43.560;1.294;2022-10-16T00:50:29;16.70;99.90
43695;DHT22;29300;43.560;1.294;2022-10-16T00:52:56;16.80;99.90
43695;DHT22;29300;43.560;1.294;2022-10-16T00:55:22;16.70;99.90
43695;DHT22;29300;43.560;1.294;2022-10-16T00:57:49;16.70;99.90
43695;DHT22;29300;43.560;1.294;2022-10-16T01:00:21;16.80;99.90
43695;DHT22;29300;43.560;1.294;2022-10-16T01:02:59;16.80;99.90
43695;DHT22;29300;43.560;1.294;2022-10-16T01:05:49;16.80;99.90
43695;DHT22;29300;43.560;1.294;2022-10-16T01:08:24;16.80;99.90
43695;DHT22;29300;43.560;1.294;2022-10-16T01:10:59;16.90;99.90
43695;DHT22;29300;43.560;1.294;2022-10-16T01:13:33;16.80;99.90
43695;DHT22;29300;43.560;1.294;2022-10-16T01:16:13;16.90;99.90
43695;DHT22;29300;43.560;1.294;2022-10-16T01:18:49;16.90;99.90
43695;DHT22;29300;43.560;1.294;2022-10-16T01:21:36;17.00;99.90
43695;DHT22;29300;43.560;1.294;2022-10-16T01:31:57;17.20;99.90
43695;DHT22;29300;43.560;1.294;2022-10-16T01:34:35;17.20;99.90
43695;DHT22;29300;43.560;1.294;2022-10-16T01:37:07;17.20;99.90
43695;DHT22;29300;43.560;1.294;2022-10-16T01:39:35;17.30;99.90
43695;DHT22;29300;43.560;1.294;2022-10-16T01:42:24;17.30;99.90
43695;DHT22;29300;43.560;1.294;2022-10-16T01:44:53;17.30;99.90
43695;DHT22;29300;43.560;1.294;2022-10-16T01:47:23;17.30;99.90
43695;DHT22;29300;43.560;1.294;2022-10-16T01:49:50;17.30;99.90
43695;DHT22;29300;43.560;1.294;2022-10-16T01:52:21;17.30;99.90
43695;DHT22;29300;43.560;1.294;2022-10-16T01:54:50;17.30;99.90
43695;DHT22;29300;43.560;1.294;2022-10-16T01:57:17;17.30;99.90
43695;DHT22;29300;43.560;1.294;2022-10-16T01:59:47;17.40;99.90
43695;DHT22;29300;43.560;1.294;2022-10-16T02:02:15;17.40;99.90
43695;DHT22;29300;43.560;1.294;2022-10-16T02:05:11;17.40;99.90
43695;DHT22;29300;43.560;1.294;2022-10-16T02:07:40;17.40;99.90
43695;DHT22;29300;43.560;1.294;2022-10-16T02:10:07;17.40;99.90
43695;DHT22;29300;43.560;1.294;2022-10-16T02:12:36;17.40;99.90
43695;DHT22;29300;43.560;1.294;2022-10-16T02:15:05;17.30;99.90
43695;DHT22;29300;43.560;1.294;2022-10-16T02:17:31;17.40;99.90
43695;DHT22;29300;43.560;1.294;2022-10-16T02:19:57;17.40;99.90
43695;DHT22;29300;43.560;1.294;2022-10-16T02:22:28;17.30;99.90
43695;DHT22;29300;43.560;1.294;2022-10-16T02:25:30;17.30;99.90
43695;DHT22;29300;43.560;1.294;2022-10-16T02:28:17;17.20;99.90
43695;DHT22;29300;43.560;1.294;2022-10-16T02:30:48;17.30;99.90
43695;DHT22;29300;43.560;1.294;2022-10-16T02:33:15;17.20;99.90
43695;DHT22;29300;43.560;1.294;2022-10-16T02:35:43;17.30;99.90
43695;DHT22;29300;43.560;1.294;2022-10-16T02:38:11;17.20;99.90
43695;DHT22;29300;43.560;1.294;2022-10-16T02:40:38;17.10;99.90
43695;DHT22;29300;43.560;1.294;2022-10-16T02:43:04;17.10;99.90
43695;DHT22;29300;43.560;1.294;2022-10-16T02:45:30;17.10;99.90
43695;DHT22;29300;43.560;1.294;2022-10-16T02:47:56;17.10;99.90
43695;DHT22;29300;43.560;1.294;2022-10-16T02:50:22;17.10;99.90
43695;DHT22;29300;43.560;1.294;2022-10-16T02:52:48;17.00;99.90
43695;DHT22;29300;43.560;1.294;2022-10-16T02:55:14;17.10;99.90
43695;DHT22;29300;43.560;1.294;2022-10-16T02:57:40;17.00;99.90
43695;DHT22;29300;43.560;1.294;2022-10-16T03:00:07;17.00;99.90
43695;DHT22;29300;43.560;1.294;2022-10-16T03:02:34;17.10;99.90
43695;DHT22;29300;43.560;1.294;2022-10-16T03:04:59;17.10;99.90
43695;DHT22;29300;43.560;1.294;2022-10-16T03:07:25;17.00;99.90
43695;DHT22;29300;43.560;1.294;2022-10-16T03:09:50;17.00;99.90
43695;DHT22;29300;43.560;1.294;2022-10-16T03:12:16;16.90;99.90
43695;DHT22;29300;43.560;1.294;2022-10-16T03:14:42;16.80;99.90
43695;DHT22;29300;43.560;1.294;2022-10-16T03:17:07;16.80;99.90
43695;DHT22;29300;43.560;1.294;2022-10-16T03:19:33;16.80;99.90
43695;DHT22;29300;43.560;1.294;2022-10-16T03:22:00;16.80;99.90
43695;DHT22;29300;43.560;1.294;2022-10-16T03:24:25;16.80;99.90
43695;DHT22;29300;43.560;1.294;2022-10-16T03:26:51;16.80;99.90
43695;DHT22;29300;43.560;1.294;2022-10-16T03:29:16;16.70;99.90
43695;DHT22;29300;43.560;1.294;2022-10-16T03:31:42;16.70;99.90
43695;DHT22;29300;43.560;1.294;2022-10-16T03:34:08;16.70;99.90
43695;DHT22;29300;43.560;1.294;2022-10-16T03:36:34;16.80;99.90
43695;DHT22;29300;43.560;1.294;2022-10-16T03:38:59;16.80;99.90
43695;DHT22;29300;43.560;1.294;2022-10-16T03:41:25;16.70;99.90
43695;DHT22;29300;43.560;1.294;2022-10-16T03:43:51;16.70;99.90
43695;DHT22;29300;43.560;1.294;2022-10-16T03:46:17;16.60;99.90
43695;DHT22;29300;43.560;1.294;2022-10-16T03:48:42;16.60;99.90
43695;DHT22;29300;43.560;1.294;2022-10-16T03:51:08;16.60;99.90
43695;DHT22;29300;43.560;1.294;2022-10-16T03:53:34;16.70;99.90
43695;DHT22;29300;43.560;1.294;2022-10-16T03:55:59;16.80;99.90
43695;DHT22;29300;43.560;1.294;2022-10-16T03:58:25;16.90;99.90
43695;DHT22;29300;43.560;1.294;2022-10-16T04:00:51;17.00;99.90
43695;DHT22;29300;43.560;1.294;2022-10-16T04:03:17;17.00;99.90
43695;DHT22;29300;43.560;1.294;2022-10-16T04:05:44;17.10;99.90
43695;DHT22;29300;43.560;1.294;2022-10-16T04:08:10;17.00;99.90
43695;DHT22;29300;43.560;1.294;2022-10-16T04:10:35;16.90;99.90
43695;DHT22;29300;43.560;1.294;2022-10-16T04:13:01;16.90;99.90
43695;DHT22;29300;43.560;1.294;2022-10-16T04:15:27;16.90;99.90
43695;DHT22;29300;43.560;1.294;2022-10-16T04:17:52;17.00;99.90
43695;DHT22;29300;43.560;1.294;2022-10-16T04:20:18;17.10;99.90
43695;DHT22;29300;43.560;1.294;2022-10-16T04:22:44;17.10;99.90
43695;DHT22;29300;43.560;1.294;2022-10-16T04:25:11;17.20;99.90
43695;DHT22;29300;43.560;1.294;2022-10-16T04:27:38;17.30;99.90
43695;DHT22;29300;43.560;1.294;2022-10-16T04:30:04;17.30;99.90
43695;DHT22;29300;43.560;1.294;2022-10-16T04:32:30;17.30;99.90
43695;DHT22;29300;43.560;1.294;2022-10-16T04:34:55;17.40;99.90
43695;DHT22;29300;43.560;1.294;2022-10-16T04:37:25;17.40;99.90
43695;DHT22;29300;43.560;1.294;2022-10-16T04:39:51;17.40;99.90
43695;DHT22;29300;43.560;1.294;2022-10-16T04:42:17;17.30;99.90
43695;DHT22;29300;43.560;1.294;2022-10-16T04:44:43;17.40;99.90
43695;DHT22;29300;43.560;1.294;2022-10-16T04:47:08;17.40;99.90
43695;DHT22;29300;43.560;1.294;2022-10-16T04:49:34;17.40;99.90
43695;DHT22;29300;43.560;1.294;2022-10-16T04:52:00;17.50;99.90
43695;DHT22;29300;43.560;1.294;2022-10-16T04:54:26;17.50;99.90
43695;DHT22;29300;43.560;1.294;2022-10-16T04:56:51;17.50;99.90
43695;DHT22;29300;43.560;1.294;2022-10-16T04:59:20;17.50;99.90
43695;DHT22;29300;43.560;1.294;2022-10-16T05:01:46;17.50;99.90
43695;DHT22;29300;43.560;1.294;2022-10-16T05:04:12;17.50;99.90
43695;DHT22;29300;43.560;1.294;2022-10-16T05:06:40;17.50;99.90
43695;DHT22;29300;43.560;1.294;2022-10-16T05:09:07;17.50;99.90
43695;DHT22;29300;43.560;1.294;2022-10-16T05:11:33;17.60;99.90
43695;DHT22;29300;43.560;1.294;2022-10-16T05:13:59;17.60;99.90
43695;DHT22;29300;43.560;1.294;2022-10-16T05:16:24;17.60;99.90
43695;DHT22;29300;43.560;1.294;2022-10-16T05:18:51;17.60;99.90
43695;DHT22;29300;43.560;1.294;2022-10-16T05:21:17;17.60;99.90
43695;DHT22;29300;43.560;1.294;2022-10-16T05:23:43;17.70;99.90
43695;DHT22;29300;43.560;1.294;2022-10-16T05:26:09;17.70;99.90
43695;DHT22;29300;43.560;1.294;2022-10-16T05:28:34;17.60;99.90
43695;DHT22;29300;43.560;1.294;2022-10-16T05:31:05;17.70;99.90
43695;DHT22;29300;43.560;1.294;2022-10-16T05:33:31;17.70;99.90
43695;DHT22;29300;43.560;1.294;2022-10-16T05:35:57;17.70;99.90
43695;DHT22;29300;43.560;1.294;2022-10-16T05:38:25;17.70;99.90
43695;DHT22;29300;43.560;1.294;2022-10-16T05:40:51;17.70;99.90
43695;DHT22;29300;43.560;1.294;2022-10-16T05:43:21;17.80;99.90
43695;DHT22;29300;43.560;1.294;2022-10-16T05:46:04;17.70;99.90
43695;DHT22;29300;43.560;1.294;2022-10-16T05:48:31;17.80;99.90
43695;DHT22;29300;43.560;1.294;2022-10-16T05:50:58;17.80;99.90
43695;DHT22;29300;43.560;1.294;2022-10-16T05:53:24;17.80;99.90
43695;DHT22;29300;43.560;1.294;2022-10-16T05:55:55;17.80;99.90
43695;DHT22;29300;43.560;1.294;2022-10-16T05:58:21;17.80;99.90
43695;DHT22;29300;43.560;1.294;2022-10-16T06:00:55;17.80;99.90
43695;DHT22;29300;43.560;1.294;2022-10-16T06:03:21;17.80;99.90
43695;DHT22;29300;43.560;1.294;2022-10-16T06:05:46;17.80;99.90
43695;DHT22;29300;43.560;1.294;2022-10-16T06:08:12;17.80;99.90
43695;DHT22;29300;43.560;1.294;2022-10-16T06:10:38;17.80;99.90
43695;DHT22;29300;43.560;1.294;2022-10-16T06:13:03;17.90;99.90
43695;DHT22;29300;43.560;1.294;2022-10-16T06:15:29;17.90;99.90
43695;DHT22;29300;43.560;1.294;2022-10-16T06:17:55;17.90;99.90
43695;DHT22;29300;43.560;1.294;2022-10-16T06:20:21;17.90;99.90
43695;DHT22;29300;43.560;1.294;2022-10-16T06:22:47;17.90;99.90
43695;DHT22;29300;43.560;1.294;2022-10-16T06:25:12;17.90;99.90
43695;DHT22;29300;43.560;1.294;2022-10-16T06:27:41;17.90;99.90
43695;DHT22;29300;43.560;1.294;2022-10-16T06:30:07;18.00;99.90
43695;DHT22;29300;43.560;1.294;2022-10-16T06:32:33;18.00;99.90
43695;DHT22;29300;43.560;1.294;2022-10-16T06:34:59;18.00;99.90
43695;DHT22;29300;43.560;1.294;2022-10-16T06:37:24;18.10;99.90
43695;DHT22;29300;43.560;1.294;2022-10-16T06:39:50;18.00;99.90
43695;DHT22;29300;43.560;1.294;2022-10-16T06:42:19;18.10;99.90
43695;DHT22;29300;43.560;1.294;2022-10-16T06:44:45;18.10;99.90
43695;DHT22;29300;43.560;1.294;2022-10-16T06:47:10;18.10;99.90
43695;DHT22;29300;43.560;1.294;2022-10-16T06:49:36;18.10;99.90
43695;DHT22;29300;43.560;1.294;2022-10-16T06:52:02;18.10;99.90
43695;DHT22;29300;43.560;1.294;2022-10-16T06:54:28;18.20;99.90
43695;DHT22;29300;43.560;1.294;2022-10-16T06:56:54;18.20;99.90
43695;DHT22;29300;43.560;1.294;2022-10-16T06:59:21;18.20;99.90
43695;DHT22;29300;43.560;1.294;2022-10-16T07:01:47;18.20;99.90
43695;DHT22;29300;43.560;1.294;2022-10-16T07:04:12;18.30;99.90
43695;DHT22;29300;43.560;1.294;2022-10-16T07:06:38;18.30;99.90
43695;DHT22;29300;43.560;1.294;2022-10-16T07:09:06;18.30;99.90
43695;DHT22;29300;43.560;1.294;2022-10-16T07:11:34;18.40;99.90
43695;DHT22;29300;43.560;1.294;2022-10-16T07:13:59;18.40;99.90
43695;DHT22;29300;43.560;1.294;2022-10-16T07:16:27;18.40;99.90
43695;DHT22;29300;43.560;1.294;2022-10-16T07:18:58;18.40;99.90
43695;DHT22;29300;43.560;1.294;2022-10-16T07:21:29;18.40;99.90
43695;DHT22;29300;43.560;1.294;2022-10-16T07:23:57;18.40;99.90
43695;DHT22;29300;43.560;1.294;2022-10-16T07:26:23;18.50;99.90
43695;DHT22;29300;43.560;1.294;2022-10-16T07:28:49;18.40;99.90
43695;DHT22;29300;43.560;1.294;2022-10-16T07:31:16;18.50;99.90
43695;DHT22;29300;43.560;1.294;2022-10-16T07:33:43;18.50;99.90
43695;DHT22;29300;43.560;1.294;2022-10-16T07:36:11;18.50;99.90
43695;DHT22;29300;43.560;1.294;2022-10-16T07:38:37;18.60;99.90
43695;DHT22;29300;43.560;1.294;2022-10-16T07:41:05;18.70;99.90
43695;DHT22;29300;43.560;1.294;2022-10-16T07:43:31;18.80;99.90
43695;DHT22;29300;43.560;1.294;2022-10-16T07:45:58;19.00;99.90
43695;DHT22;29300;43.560;1.294;2022-10-16T07:48:26;19.20;99.90
43695;DHT22;29300;43.560;1.294;2022-10-16T07:50:52;19.30;99.90
43695;DHT22;29300;43.560;1.294;2022-10-16T07:53:22;19.40;99.90
43695;DHT22;29300;43.560;1.294;2022-10-16T07:55:47;19.50;99.90
43695;DHT22;29300;43.560;1.294;2022-10-16T07:58:13;19.50;99.90
43695;DHT22;29300;43.560;1.294;2022-10-16T08:00:38;19.60;99.90
43695;DHT22;29300;43.560;1.294;2022-10-16T08:03:04;19.60;99.90
43695;DHT22;29300;43.560;1.294;2022-10-16T08:05:32;19.90;99.90
43695;DHT22;29300;43.560;1.294;2022-10-16T08:07:58;19.90;99.90
43695;DHT22;29300;43.560;1.294;2022-10-16T08:10:25;20.30;99.90
43695;DHT22;29300;43.560;1.294;2022-10-16T08:12:52;22.30;99.90
43695;DHT22;29300;43.560;1.294;2022-10-16T08:15:18;22.90;99.90
43695;DHT22;29300;43.560;1.294;2022-10-16T08:17:44;25.40;99.90
43695;DHT22;29300;43.560;1.294;2022-10-16T08:20:11;25.20;99.90
43695;DHT22;29300;43.560;1.294;2022-10-16T08:22:37;25.90;99.90
43695;DHT22;29300;43.560;1.294;2022-10-16T08:25:03;27.50;99.90
43695;DHT22;29300;43.560;1.294;2022-10-16T08:27:33;27.00;99.90
43695;DHT22;29300;43.560;1.294;2022-10-16T08:29:58;27.50;99.90
43695;DHT22;29300;43.560;1.294;2022-10-16T08:32:24;27.30;99.90
43695;DHT22;29300;43.560;1.294;2022-10-16T08:34:50;27.50;99.90
43695;DHT22;29300;43.560;1.294;2022-10-16T08:37:15;26.90;99.90
43695;DHT22;29300;43.560;1.294;2022-10-16T08:39:41;26.40;99.90
43695;DHT22;29300;43.560;1.294;2022-10-16T08:45:08;24.90;99.90
43695;DHT22;29300;43.560;1.294;2022-10-16T08:50:25;24.20;99.90
43695;DHT22;29300;43.560;1.294;2022-10-16T08:52:53;23.80;99.90
43695;DHT22;29300;43.560;1.294;2022-10-16T08:55:29;23.30;99.90
43695;DHT22;29300;43.560;1.294;2022-10-16T08:57:55;23.20;99.90
43695;DHT22;29300;43.560;1.294;2022-10-16T09:00:21;23.10;99.90
43695;DHT22;29300;43.560;1.294;2022-10-16T09:05:49;24.40;99.90
43695;DHT22;29300;43.560;1.294;2022-10-16T09:11:48;23.20;99.90
43695;DHT22;29300;43.560;1.294;2022-10-16T09:19:53;23.00;99.90
43695;DHT22;29300;43.560;1.294;2022-10-16T09:22:24;23.00;99.90
43695;DHT22;29300;43.560;1.294;2022-10-16T09:24:52;23.30;99.90
43695;DHT22;29300;43.560;1.294;2022-10-16T09:27:19;23.50;99.90
43695;DHT22;29300;43.560;1.294;2022-10-16T09:29:44;23.50;99.90
43695;DHT22;29300;43.560;1.294;2022-10-16T09:32:16;23.20;99.90
43695;DHT22;29300;43.560;1.294;2022-10-16T09:34:49;23.20;99.90
43695;DHT22;29300;43.560;1.294;2022-10-16T09:37:18;23.20;99.90
43695;DHT22;29300;43.560;1.294;2022-10-16T09:39:54;23.20;99.90
43695;DHT22;29300;43.560;1.294;2022-10-16T09:42:27;23.30;99.90
43695;DHT22;29300;43.560;1.294;2022-10-16T09:44:56;23.10;99.90
43695;DHT22;29300;43.560;1.294;2022-10-16T09:47:26;23.10;99.90
43695;DHT22;29300;43.560;1.294;2022-10-16T09:49:53;23.30;99.90
43695;DHT22;29300;43.560;1.294;2022-10-16T09:52:22;23.10;99.90
43695;DHT22;29300;43.560;1.294;2022-10-16T09:54:52;23.20;99.90
43695;DHT22;29300;43.560;1.294;2022-10-16T09:57:18;23.10;99.90
43695;DHT22;29300;43.560;1.294;2022-10-16T09:59:52;23.20;99.90
43695;DHT22;29300;43.560;1.294;2022-10-16T10:02:26;23.30;99.90
43695;DHT22;29300;43.560;1.294;2022-10-16T10:04:54;23.30;99.90
43695;DHT22;29300;43.560;1.294;2022-10-16T10:07:24;23.50;99.90
43695;DHT22;29300;43.560;1.294;2022-10-16T10:09:51;23.50;99.90
43695;DHT22;29300;43.560;1.294;2022-10-16T10:12:28;23.50;99.90
43695;DHT22;29300;43.560;1.294;2022-10-16T10:14:58;23.50;99.90
43695;DHT22;29300;43.560;1.294;2022-10-16T10:17:29;23.50;99.90
43695;DHT22;29300;43.560;1.294;2022-10-16T10:19:57;23.60;99.90
43695;DHT22;29300;43.560;1.294;2022-10-16T10:22:40;23.70;99.90
43695;DHT22;29300;43.560;1.294;2022-10-16T10:30:44;23.80;99.90
43695;DHT22;29300;43.560;1.294;2022-10-16T10:52:45;24.10;99.90
43695;DHT22;29300;43.560;1.294;2022-10-16T11:07:18;24.20;99.90
43695;DHT22;29300;43.560;1.294;2022-10-16T11:09:53;24.40;99.90
43695;DHT22;29300;43.560;1.294;2022-10-16T11:12:44;24.40;99.90
43695;DHT22;29300;43.560;1.294;2022-10-16T11:15:19;24.60;99.90
43695;DHT22;29300;43.560;1.294;2022-10-16T11:18:07;24.60;99.90
43695;DHT22;29300;43.560;1.294;2022-10-16T11:20:45;24.60;99.90
43695;DHT22;29300;43.560;1.294;2022-10-16T11:23:25;24.50;99.90
43695;DHT22;29300;43.560;1.294;2022-10-16T11:25:55;24.60;99.90
43695;DHT22;29300;43.560;1.294;2022-10-16T11:28:28;24.50;99.90
43695;DHT22;29300;43.560;1.294;2022-10-16T11:31:40;24.60;99.90
43695;DHT22;29300;43.560;1.294;2022-10-16T11:34:41;24.60;99.90
43695;DHT22;29300;43.560;1.294;2022-10-16T11:37:40;24.70;99.90
43695;DHT22;29300;43.560;1.294;2022-10-16T11:40:23;24.70;99.90
43695;DHT22;29300;43.560;1.294;2022-10-16T11:43:09;24.60;99.90
43695;DHT22;29300;43.560;1.294;2022-10-16T11:45:45;24.80;99.90
43695;DHT22;29300;43.560;1.294;2022-10-16T11:48:24;24.80;99.90
43695;DHT22;29300;43.560;1.294;2022-10-16T11:56:32;24.50;99.90
43695;DHT22;29300;43.560;1.294;2022-10-16T11:59:13;24.60;99.90
43695;DHT22;29300;43.560;1.294;2022-10-16T12:02:03;24.50;99.90
43695;DHT22;29300;43.560;1.294;2022-10-16T12:04:43;24.70;99.90
43695;DHT22;29300;43.560;1.294;2022-10-16T12:07:18;24.60;99.90
43695;DHT22;29300;43.560;1.294;2022-10-16T12:09:45;24.40;99.90
43695;DHT22;29300;43.560;1.294;2022-10-16T12:15:25;24.40;99.90
43695;DHT22;29300;43.560;1.294;2022-10-16T12:17:52;24.50;99.90
43695;DHT22;29300;43.560;1.294;2022-10-16T12:20:30;24.50;99.90
43695;DHT22;29300;43.560;1.294;2022-10-16T12:23:02;24.40;99.90
43695;DHT22;29300;43.560;1.294;2022-10-16T12:25:34;24.60;99.90
43695;DHT22;29300;43.560;1.294;2022-10-16T12:28:01;24.60;99.90
43695;DHT22;29300;43.560;1.294;2022-10-16T12:30:31;24.70;99.90
43695;DHT22;29300;43.560;1.294;2022-10-16T12:33:20;24.80;99.90
43695;DHT22;29300;43.560;1.294;2022-10-16T12:35:44;24.70;99.90
43695;DHT22;29300;43.560;1.294;2022-10-16T12:38:35;24.60;99.90
43695;DHT22;29300;43.560;1.294;2022-10-16T12:41:06;24.50;99.90
43695;DHT22;29300;43.560;1.294;2022-10-16T12:43:47;24.50;99.90
43695;DHT22;29300;43.560;1.294;2022-10-16T12:48:41;24.40;99.90
43695;DHT22;29300;43.560;1.294;2022-10-16T13:05:20;24.40;99.90
43695;DHT22;29300;43.560;1.294;2022-10-16T13:14:24;24.50;99.90
43695;DHT22;29300;43.560;1.294;2022-10-16T13:19:41;24.30;99.90
43695;DHT22;29300;43.560;1.294;2022-10-16T13:30:15;24.40;99.90
43695;DHT22;29300;43.560;1.294;2022-10-16T13:32:45;24.60;99.90
43695;DHT22;29300;43.560;1.294;2022-10-16T13:35:23;24.60;99.90
43695;DHT22;29300;43.560;1.294;2022-10-16T13:37:50;24.60;99.90
43695;DHT22;29300;43.560;1.294;2022-10-16T13:40:21;24.50;99.90
43695;DHT22;29300;43.560;1.294;2022-10-16T13:42:48;24.50;99.90
43695;DHT22;29300;43.560;1.294;2022-10-16T13:45:19;24.60;99.90
43695;DHT22;29300;43.560;1.294;2022-10-16T13:47:45;24.50;99.90
43695;DHT22;29300;43.560;1.294;2022-10-16T13:50:18;24.40;99.90
43695;DHT22;29300;43.560;1.294;2022-10-16T13:52:44;24.40;99.90
43695;DHT22;29300;43.560;1.294;2022-10-16T13:55:17;24.40;99.90
43695;DHT22;29300;43.560;1.294;2022-10-16T13:57:44;24.40;99.90
43695;DHT22;29300;43.560;1.294;2022-10-16T14:00:25;24.40;99.90
43695;DHT22;29300;43.560;1.294;2022-10-16T14:03:02;24.40;99.90
43695;DHT22;29300;43.560;1.294;2022-10-16T14:05:28;24.50;99.90
43695;DHT22;29300;43.560;1.294;2022-10-16T14:07:55;24.50;99.90
43695;DHT22;29300;43.560;1.294;2022-10-16T14:10:30;24.50;99.90
43695;DHT22;29300;43.560;1.294;2022-10-16T14:13:02;24.40;99.90
43695;DHT22;29300;43.560;1.294;2022-10-16T14:15:30;24.40;99.90
43695;DHT22;29300;43.560;1.294;2022-10-16T14:17:58;24.40;99.90
43695;DHT22;29300;43.560;1.294;2022-10-16T14:20:29;24.30;99.90
43695;DHT22;29300;43.560;1.294;2022-10-16T14:23:28;24.30;99.90
43695;DHT22;29300;43.560;1.294;2022-10-16T14:25:51;24.30;99.90
43695;DHT22;29300;43.560;1.294;2022-10-16T14:28:23;24.30;99.90
43695;DHT22;29300;43.560;1.294;2022-10-16T14:30:59;24.20;99.90
43695;DHT22;29300;43.560;1.294;2022-10-16T14:38:39;24.00;99.90
43695;DHT22;29300;43.560;1.294;2022-10-16T14:41:06;23.90;99.90
43695;DHT22;29300;43.560;1.294;2022-10-16T14:43:37;23.80;99.90
43695;DHT22;29300;43.560;1.294;2022-10-16T14:46:11;23.70;99.90
43695;DHT22;29300;43.560;1.294;2022-10-16T14:48:45;23.70;99.90
43695;DHT22;29300;43.560;1.294;2022-10-16T14:51:16;23.60;99.90
43695;DHT22;29300;43.560;1.294;2022-10-16T14:53:42;23.60;99.90
43695;DHT22;29300;43.560;1.294;2022-10-16T14:56:14;23.60;99.90
43695;DHT22;29300;43.560;1.294;2022-10-16T14:58:41;23.60;99.90
43695;DHT22;29300;43.560;1.294;2022-10-16T15:01:09;23.70;99.90
43695;DHT22;29300;43.560;1.294;2022-10-16T15:03:36;23.70;99.90
43695;DHT22;29300;43.560;1.294;2022-10-16T15:06:01;23.70;99.90
43695;DHT22;29300;43.560;1.294;2022-10-16T15:08:27;23.70;99.90
43695;DHT22;29300;43.560;1.294;2022-10-16T15:10:53;23.80;99.90
43695;DHT22;29300;43.560;1.294;2022-10-16T15:13:19;23.90;99.90
43695;DHT22;29300;43.560;1.294;2022-10-16T15:15:46;23.90;99.90
43695;DHT22;29300;43.560;1.294;2022-10-16T15:18:13;23.80;99.90
43695;DHT22;29300;43.560;1.294;2022-10-16T15:20:40;23.80;99.90
43695;DHT22;29300;43.560;1.294;2022-10-16T15:23:18;23.80;99.90
43695;DHT22;29300;43.560;1.294;2022-10-16T15:25:44;23.80;99.90
43695;DHT22;29300;43.560;1.294;2022-10-16T15:28:11;23.80;99.90
43695;DHT22;29300;43.560;1.294;2022-10-16T15:30:38;23.80;99.90
43695;DHT22;29300;43.560;1.294;2022-10-16T15:33:04;23.80;99.90
43695;DHT22;29300;43.560;1.294;2022-10-16T15:35:31;23.80;99.90
43695;DHT22;29300;43.560;1.294;2022-10-16T15:37:57;23.90;99.90
43695;DHT22;29300;43.560;1.294;2022-10-16T15:40:23;23.80;99.90
43695;DHT22;29300;43.560;1.294;2022-10-16T15:42:49;23.80;99.90
43695;DHT22;29300;43.560;1.294;2022-10-16T15:45:15;23.70;99.90
43695;DHT22;29300;43.560;1.294;2022-10-16T15:47:42;23.60;99.90
43695;DHT22;29300;43.560;1.294;2022-10-16T15:50:10;23.60;99.90
43695;DHT22;29300;43.560;1.294;2022-10-16T15:52:37;23.60;99.90
43695;DHT22;29300;43.560;1.294;2022-10-16T15:55:08;23.50;99.90
43695;DHT22;29300;43.560;1.294;2022-10-16T15:57:35;23.50;99.90
43695;DHT22;29300;43.560;1.294;2022-10-16T16:00:07;23.40;99.90
43695;DHT22;29300;43.560;1.294;2022-10-16T16:02:33;23.40;99.90
43695;DHT22;29300;43.560;1.294;2022-10-16T16:04:59;23.40;99.90
43695;DHT22;29300;43.560;1.294;2022-10-16T16:07:25;23.30;99.90
43695;DHT22;29300;43.560;1.294;2022-10-16T16:09:52;23.30;99.90
43695;DHT22;29300;43.560;1.294;2022-10-16T16:12:18;23.30;99.90
43695;DHT22;29300;43.560;1.294;2022-10-16T16:14:44;23.20;99.90
43695;DHT22;29300;43.560;1.294;2022-10-16T16:17:11;23.20;99.90
43695;DHT22;29300;43.560;1.294;2022-10-16T16:19:37;23.10;99.90
43695;DHT22;29300;43.560;1.294;2022-10-16T16:22:02;23.00;99.90
43695;DHT22;29300;43.560;1.294;2022-10-16T16:24:28;23.00;99.90
43695;DHT22;29300;43.560;1.294;2022-10-16T16:26:54;23.00;99.90
43695;DHT22;29300;43.560;1.294;2022-10-16T16:29:20;22.90;99.90
43695;DHT22;29300;43.560;1.294;2022-10-16T16:31:45;22.90;99.90
43695;DHT22;29300;43.560;1.294;2022-10-16T16:34:12;22.80;99.90
43695;DHT22;29300;43.560;1.294;2022-10-16T16:36:39;22.70;99.90
43695;DHT22;29300;43.560;1.294;2022-10-16T16:39:06;22.70;99.90
43695;DHT22;29300;43.560;1.294;2022-10-16T16:41:33;22.60;99.90
43695;DHT22;29300;43.560;1.294;2022-10-16T16:44:07;22.50;99.90
43695;DHT22;29300;43.560;1.294;2022-10-16T16:46:34;22.50;99.90
43695;DHT22;29300;43.560;1.294;2022-10-16T16:49:00;22.40;99.90
43695;DHT22;29300;43.560;1.294;2022-10-16T16:51:26;22.30;99.90
43695;DHT22;29300;43.560;1.294;2022-10-16T16:53:53;22.30;99.90
43695;DHT22;29300;43.560;1.294;2022-10-16T16:56:21;22.30;99.90
43695;DHT22;29300;43.560;1.294;2022-10-16T16:58:48;22.20;99.90
43695;DHT22;29300;43.560;1.294;2022-10-16T17:01:13;22.10;99.90
43695;DHT22;29300;43.560;1.294;2022-10-16T17:03:42;22.10;99.90
43695;DHT22;29300;43.560;1.294;2022-10-16T17:06:12;22.00;99.90
43695;DHT22;29300;43.560;1.294;2022-10-16T17:08:40;21.90;99.90
43695;DHT22;29300;43.560;1.294;2022-10-16T17:11:11;21.90;99.90
43695;DHT22;29300;43.560;1.294;2022-10-16T17:13:36;21.90;99.90
43695;DHT22;29300;43.560;1.294;2022-10-16T17:16:04;21.90;99.90
43695;DHT22;29300;43.560;1.294;2022-10-16T17:18:30;21.80;99.90
43695;DHT22;29300;43.560;1.294;2022-10-16T17:20:59;21.80;99.90
43695;DHT22;29300;43.560;1.294;2022-10-16T17:23:25;21.70;99.90
43695;DHT22;29300;43.560;1.294;2022-10-16T17:25:51;21.70;99.90
43695;DHT22;29300;43.560;1.294;2022-10-16T17:28:17;21.60;99.90
43695;DHT22;29300;43.560;1.294;2022-10-16T17:30:43;21.60;99.90
43695;DHT22;29300;43.560;1.294;2022-10-16T17:33:10;21.50;99.90